This is the latest recevied weather packets stored in our database for station/object F4IEI-10. If no packets are shown the sender has not sent any weather packets the latest 10 day(s).
| Time | Temp. | Humidity | Pressure | Rain* | Wind** | Luminosity | Snow |
|---|---|---|---|---|---|---|---|
| 1777817617 | 17.22° C | 98% | 1011.1 hPa | - | - | - | - |
| 1777816717 | 16.67° C | 100% | 1011.2 hPa | - | - | - | - |
| 1777815817 | 16.11° C | 100% | 1011.4 hPa | - | - | - | - |
| 1777814917 | 16.67° C | 99% | 1011.6 hPa | - | - | - | - |
| 1777814017 | 19.44° C | 84% | 1011.3 hPa | - | - | - | - |
| 1777813124 | 18.89° C | 83% | 1011.3 hPa | - | - | - | - |
| 1777812217 | 19.44° C | 83% | 1011.4 hPa | - | - | - | - |
| 1777811317 | 19.44° C | 87% | 1011.3 hPa | - | - | - | - |
| 1777810418 | 18.33° C | 90% | 1011.5 hPa | - | - | - | - |
| 1777809517 | 17.22° C | 92% | 1011.6 hPa | - | - | - | - |
| 1777808617 | 17.78° C | 92% | 1011.7 hPa | - | - | - | - |
| 1777807717 | 18.33° C | 92% | 1011.7 hPa | - | - | - | - |
| 1777806824 | 19.44° C | 91% | 1011.7 hPa | - | - | - | - |
| 1777805917 | 17.22° C | 98% | 1011.7 hPa | - | - | - | - |
| 1777805017 | 17.22° C | 98% | 1012.1 hPa | - | - | - | - |
| 1777804118 | 15.56° C | 100% | 1012.1 hPa | - | - | - | - |
| 1777803217 | 16.11° C | 100% | 1012.1 hPa | - | - | - | - |
| 1777802317 | 15° C | 98% | 1012.3 hPa | - | - | - | - |
| 1777801417 | 14.44° C | 98% | 1012.3 hPa | - | - | - | - |
| 1777800517 | 15° C | 100% | 1012.4 hPa | - | - | - | - |
| 1777799617 | 14.44° C | 97% | 1012.3 hPa | - | - | - | - |
| 1777798717 | 15° C | 100% | 1012.3 hPa | - | - | - | - |
| 1777797817 | 15° C | 99% | 1012.3 hPa | - | - | - | - |
| 1777796917 | 15° C | 100% | 1012.3 hPa | - | - | - | - |
| 1777796017 | 13.89° C | 97% | 1012.2 hPa | - | - | - | - |
* Rain since midnight (hover to see other rain measurements)
** Current wind speed in m/s (hover to see current wind gust speed)